sensor_id;sensor_type;location;lat;lon;timestamp;temperature;humidity
21807;DHT22;11065;50.786;7.840;2023-02-15T00:02:05;4.00;43.00
21807;DHT22;11065;50.786;7.840;2023-02-15T00:04:33;3.90;42.90
21807;DHT22;11065;50.786;7.840;2023-02-15T00:07:18;3.90;43.00
21807;DHT22;11065;50.786;7.840;2023-02-15T00:09:46;3.90;43.00
21807;DHT22;11065;50.786;7.840;2023-02-15T00:12:15;3.90;43.00
21807;DHT22;11065;50.786;7.840;2023-02-15T00:14:45;3.90;43.10
21807;DHT22;11065;50.786;7.840;2023-02-15T00:17:13;3.80;43.00
21807;DHT22;11065;50.786;7.840;2023-02-15T00:19:41;3.80;43.10
21807;DHT22;11065;50.786;7.840;2023-02-15T00:22:09;3.80;43.10
21807;DHT22;11065;50.786;7.840;2023-02-15T00:24:37;3.80;43.20
21807;DHT22;11065;50.786;7.840;2023-02-15T00:27:05;3.80;43.20
21807;DHT22;11065;50.786;7.840;2023-02-15T00:29:33;3.80;43.30
21807;DHT22;11065;50.786;7.840;2023-02-15T00:32:02;3.70;43.40
21807;DHT22;11065;50.786;7.840;2023-02-15T00:34:30;3.70;43.40
21807;DHT22;11065;50.786;7.840;2023-02-15T00:36:59;3.70;43.50
21807;DHT22;11065;50.786;7.840;2023-02-15T00:39:27;3.70;43.50
21807;DHT22;11065;50.786;7.840;2023-02-15T00:41:55;3.60;43.50
21807;DHT22;11065;50.786;7.840;2023-02-15T00:44:24;3.70;43.50
21807;DHT22;11065;50.786;7.840;2023-02-15T00:46:55;3.60;43.60
21807;DHT22;11065;50.786;7.840;2023-02-15T00:49:25;3.60;43.70
21807;DHT22;11065;50.786;7.840;2023-02-15T00:51:53;3.60;43.70
21807;DHT22;11065;50.786;7.840;2023-02-15T00:54:21;3.60;43.70
21807;DHT22;11065;50.786;7.840;2023-02-15T00:56:49;3.50;43.60
21807;DHT22;11065;50.786;7.840;2023-02-15T00:59:17;3.50;43.70
21807;DHT22;11065;50.786;7.840;2023-02-15T01:01:47;3.50;43.70
21807;DHT22;11065;50.786;7.840;2023-02-15T01:04:15;3.50;43.80
21807;DHT22;11065;50.786;7.840;2023-02-15T01:06:44;3.50;43.70
21807;DHT22;11065;50.786;7.840;2023-02-15T01:09:12;3.50;43.70
21807;DHT22;11065;50.786;7.840;2023-02-15T01:11:40;3.40;43.80
21807;DHT22;11065;50.786;7.840;2023-02-15T01:14:09;3.50;43.90
21807;DHT22;11065;50.786;7.840;2023-02-15T01:16:38;3.40;43.90
21807;DHT22;11065;50.786;7.840;2023-02-15T01:19:06;3.40;43.90
21807;DHT22;11065;50.786;7.840;2023-02-15T01:21:34;3.40;43.90
21807;DHT22;11065;50.786;7.840;2023-02-15T01:24:03;3.40;44.00
21807;DHT22;11065;50.786;7.840;2023-02-15T01:26:31;3.40;44.30
21807;DHT22;11065;50.786;7.840;2023-02-15T01:28:59;3.30;44.10
21807;DHT22;11065;50.786;7.840;2023-02-15T01:31:27;3.30;44.60
21807;DHT22;11065;50.786;7.840;2023-02-15T01:33:56;3.20;44.50
21807;DHT22;11065;50.786;7.840;2023-02-15T01:36:24;3.20;44.80
21807;DHT22;11065;50.786;7.840;2023-02-15T01:38:52;3.10;44.80
21807;DHT22;11065;50.786;7.840;2023-02-15T01:41:22;3.20;44.90
21807;DHT22;11065;50.786;7.840;2023-02-15T01:43:55;3.20;44.80
21807;DHT22;11065;50.786;7.840;2023-02-15T01:46:27;3.10;44.80
21807;DHT22;11065;50.786;7.840;2023-02-15T01:49:01;3.10;44.80
21807;DHT22;11065;50.786;7.840;2023-02-15T01:51:32;3.10;45.00
21807;DHT22;11065;50.786;7.840;2023-02-15T01:54:05;3.10;45.10
21807;DHT22;11065;50.786;7.840;2023-02-15T01:56:41;3.10;44.90
21807;DHT22;11065;50.786;7.840;2023-02-15T01:59:13;3.00;44.80
21807;DHT22;11065;50.786;7.840;2023-02-15T02:01:43;3.00;44.80
21807;DHT22;11065;50.786;7.840;2023-02-15T02:04:15;3.00;44.80
21807;DHT22;11065;50.786;7.840;2023-02-15T02:06:46;3.00;44.80
21807;DHT22;11065;50.786;7.840;2023-02-15T02:09:16;3.00;44.80
21807;DHT22;11065;50.786;7.840;2023-02-15T02:11:47;3.00;45.30
21807;DHT22;11065;50.786;7.840;2023-02-15T02:14:16;3.00;44.80
21807;DHT22;11065;50.786;7.840;2023-02-15T02:16:51;3.00;44.80
21807;DHT22;11065;50.786;7.840;2023-02-15T02:19:54;3.00;44.80
21807;DHT22;11065;50.786;7.840;2023-02-15T02:26:10;3.00;44.90
21807;DHT22;11065;50.786;7.840;2023-02-15T02:29:13;3.00;44.90
21807;DHT22;11065;50.786;7.840;2023-02-15T02:32:06;3.00;44.80
21807;DHT22;11065;50.786;7.840;2023-02-15T02:34:44;3.00;44.60
21807;DHT22;11065;50.786;7.840;2023-02-15T02:37:20;3.00;44.60
21807;DHT22;11065;50.786;7.840;2023-02-15T02:39:56;2.90;44.70
21807;DHT22;11065;50.786;7.840;2023-02-15T02:42:33;3.00;44.70
21807;DHT22;11065;50.786;7.840;2023-02-15T02:45:05;2.90;44.70
21807;DHT22;11065;50.786;7.840;2023-02-15T02:47:38;2.90;44.80
21807;DHT22;11065;50.786;7.840;2023-02-15T02:50:12;2.90;44.80
21807;DHT22;11065;50.786;7.840;2023-02-15T02:52:43;2.90;44.80
21807;DHT22;11065;50.786;7.840;2023-02-15T02:55:16;2.90;44.80
21807;DHT22;11065;50.786;7.840;2023-02-15T02:57:52;2.90;44.90
21807;DHT22;11065;50.786;7.840;2023-02-15T03:00:23;2.80;44.90
21807;DHT22;11065;50.786;7.840;2023-02-15T03:02:56;2.80;44.80
21807;DHT22;11065;50.786;7.840;2023-02-15T03:05:29;2.80;44.90
21807;DHT22;11065;50.786;7.840;2023-02-15T03:07:58;2.80;45.00
21807;DHT22;11065;50.786;7.840;2023-02-15T03:10:28;2.80;45.00
21807;DHT22;11065;50.786;7.840;2023-02-15T03:12:57;2.70;45.20
21807;DHT22;11065;50.786;7.840;2023-02-15T03:15:29;2.70;45.10
21807;DHT22;11065;50.786;7.840;2023-02-15T03:18:24;2.70;45.30
21807;DHT22;11065;50.786;7.840;2023-02-15T03:20:55;2.70;45.30
21807;DHT22;11065;50.786;7.840;2023-02-15T03:23:25;2.60;45.30
21807;DHT22;11065;50.786;7.840;2023-02-15T03:26:00;2.60;45.30
21807;DHT22;11065;50.786;7.840;2023-02-15T03:28:35;2.60;45.40
21807;DHT22;11065;50.786;7.840;2023-02-15T03:31:05;2.60;45.40
21807;DHT22;11065;50.786;7.840;2023-02-15T03:33:36;2.60;45.40
21807;DHT22;11065;50.786;7.840;2023-02-15T03:36:11;2.50;45.40
21807;DHT22;11065;50.786;7.840;2023-02-15T03:38:51;2.50;45.40
21807;DHT22;11065;50.786;7.840;2023-02-15T03:41:27;2.50;45.50
21807;DHT22;11065;50.786;7.840;2023-02-15T03:44:03;2.50;45.40
21807;DHT22;11065;50.786;7.840;2023-02-15T03:46:37;2.50;45.40
21807;DHT22;11065;50.786;7.840;2023-02-15T03:49:12;2.50;45.50
21807;DHT22;11065;50.786;7.840;2023-02-15T03:51:46;2.50;45.50
21807;DHT22;11065;50.786;7.840;2023-02-15T03:54:16;2.50;45.50
21807;DHT22;11065;50.786;7.840;2023-02-15T03:57:07;2.40;45.40
21807;DHT22;11065;50.786;7.840;2023-02-15T03:59:54;2.40;45.50
21807;DHT22;11065;50.786;7.840;2023-02-15T04:02:47;2.40;45.40
21807;DHT22;11065;50.786;7.840;2023-02-15T04:05:20;2.40;45.40
21807;DHT22;11065;50.786;7.840;2023-02-15T04:07:49;2.40;45.40
21807;DHT22;11065;50.786;7.840;2023-02-15T04:10:17;2.40;45.40
21807;DHT22;11065;50.786;7.840;2023-02-15T04:13:03;2.40;45.40
21807;DHT22;11065;50.786;7.840;2023-02-15T04:15:31;2.40;45.40
21807;DHT22;11065;50.786;7.840;2023-02-15T04:18:17;2.40;45.50
21807;DHT22;11065;50.786;7.840;2023-02-15T04:20:45;2.40;45.50
21807;DHT22;11065;50.786;7.840;2023-02-15T04:23:32;2.30;45.40
21807;DHT22;11065;50.786;7.840;2023-02-15T04:26:17;2.30;45.40
21807;DHT22;11065;50.786;7.840;2023-02-15T04:28:45;2.30;45.40
21807;DHT22;11065;50.786;7.840;2023-02-15T04:31:13;2.30;45.40
21807;DHT22;11065;50.786;7.840;2023-02-15T04:33:42;2.30;45.40
21807;DHT22;11065;50.786;7.840;2023-02-15T04:36:10;2.30;45.50
21807;DHT22;11065;50.786;7.840;2023-02-15T04:38:39;2.20;45.40
21807;DHT22;11065;50.786;7.840;2023-02-15T04:41:07;2.20;45.50
21807;DHT22;11065;50.786;7.840;2023-02-15T04:43:37;2.20;45.40
21807;DHT22;11065;50.786;7.840;2023-02-15T04:46:05;2.20;45.50
21807;DHT22;11065;50.786;7.840;2023-02-15T04:48:33;2.20;45.50
21807;DHT22;11065;50.786;7.840;2023-02-15T04:51:05;2.20;45.60
21807;DHT22;11065;50.786;7.840;2023-02-15T04:53:33;2.20;45.50
21807;DHT22;11065;50.786;7.840;2023-02-15T04:56:03;2.20;45.50
21807;DHT22;11065;50.786;7.840;2023-02-15T04:58:31;2.20;45.60
21807;DHT22;11065;50.786;7.840;2023-02-15T05:00:59;2.20;45.60
21807;DHT22;11065;50.786;7.840;2023-02-15T05:03:28;2.10;45.70
21807;DHT22;11065;50.786;7.840;2023-02-15T05:05:55;2.10;45.70
21807;DHT22;11065;50.786;7.840;2023-02-15T05:08:24;2.10;45.80
21807;DHT22;11065;50.786;7.840;2023-02-15T05:10:52;2.10;45.70
21807;DHT22;11065;50.786;7.840;2023-02-15T05:13:21;2.10;45.70
21807;DHT22;11065;50.786;7.840;2023-02-15T05:15:49;2.10;45.70
21807;DHT22;11065;50.786;7.840;2023-02-15T05:18:19;2.10;45.70
21807;DHT22;11065;50.786;7.840;2023-02-15T05:20:47;2.00;45.60
21807;DHT22;11065;50.786;7.840;2023-02-15T05:23:15;2.10;45.70
21807;DHT22;11065;50.786;7.840;2023-02-15T05:25:47;2.00;45.60
21807;DHT22;11065;50.786;7.840;2023-02-15T05:28:35;2.00;45.70
21807;DHT22;11065;50.786;7.840;2023-02-15T05:31:05;2.00;45.70
21807;DHT22;11065;50.786;7.840;2023-02-15T05:33:34;2.00;45.70
21807;DHT22;11065;50.786;7.840;2023-02-15T05:36:03;2.00;45.60
21807;DHT22;11065;50.786;7.840;2023-02-15T05:38:31;2.00;45.70
21807;DHT22;11065;50.786;7.840;2023-02-15T05:40:59;2.00;45.70
21807;DHT22;11065;50.786;7.840;2023-02-15T05:43:28;1.90;46.10
21807;DHT22;11065;50.786;7.840;2023-02-15T05:45:58;1.90;45.70
21807;DHT22;11065;50.786;7.840;2023-02-15T05:48:27;1.90;45.70
21807;DHT22;11065;50.786;7.840;2023-02-15T05:51:00;1.90;45.70
21807;DHT22;11065;50.786;7.840;2023-02-15T05:53:30;1.90;45.80
21807;DHT22;11065;50.786;7.840;2023-02-15T05:55:58;1.90;45.80
21807;DHT22;11065;50.786;7.840;2023-02-15T05:58:29;1.90;45.80
21807;DHT22;11065;50.786;7.840;2023-02-15T06:01:07;1.90;45.80
21807;DHT22;11065;50.786;7.840;2023-02-15T06:03:35;1.90;45.90
21807;DHT22;11065;50.786;7.840;2023-02-15T06:06:04;1.80;45.80
21807;DHT22;11065;50.786;7.840;2023-02-15T06:08:33;1.80;45.80
21807;DHT22;11065;50.786;7.840;2023-02-15T06:11:01;1.80;45.80
21807;DHT22;11065;50.786;7.840;2023-02-15T06:13:30;1.80;45.90
21807;DHT22;11065;50.786;7.840;2023-02-15T06:16:00;1.80;45.80
21807;DHT22;11065;50.786;7.840;2023-02-15T06:18:28;1.80;45.90
21807;DHT22;11065;50.786;7.840;2023-02-15T06:20:56;1.80;46.40
21807;DHT22;11065;50.786;7.840;2023-02-15T06:23:24;1.80;45.90
21807;DHT22;11065;50.786;7.840;2023-02-15T06:25:53;1.80;46.00
21807;DHT22;11065;50.786;7.840;2023-02-15T06:28:21;1.80;45.90
21807;DHT22;11065;50.786;7.840;2023-02-15T06:30:49;1.80;46.00
21807;DHT22;11065;50.786;7.840;2023-02-15T06:33:18;1.80;46.00
21807;DHT22;11065;50.786;7.840;2023-02-15T06:35:46;1.70;45.90
21807;DHT22;11065;50.786;7.840;2023-02-15T06:38:14;1.70;45.90
21807;DHT22;11065;50.786;7.840;2023-02-15T06:40:42;1.80;46.00
21807;DHT22;11065;50.786;7.840;2023-02-15T06:43:10;1.70;46.00
21807;DHT22;11065;50.786;7.840;2023-02-15T06:45:39;1.70;46.00
21807;DHT22;11065;50.786;7.840;2023-02-15T06:48:07;1.70;46.00
21807;DHT22;11065;50.786;7.840;2023-02-15T06:50:36;1.70;46.00
21807;DHT22;11065;50.786;7.840;2023-02-15T06:53:04;1.70;46.00
21807;DHT22;11065;50.786;7.840;2023-02-15T06:55:32;1.70;45.90
21807;DHT22;11065;50.786;7.840;2023-02-15T06:58:01;1.70;46.00
21807;DHT22;11065;50.786;7.840;2023-02-15T07:00:29;1.70;46.30
21807;DHT22;11065;50.786;7.840;2023-02-15T07:02:57;1.70;46.30
21807;DHT22;11065;50.786;7.840;2023-02-15T07:05:26;1.70;46.30
21807;DHT22;11065;50.786;7.840;2023-02-15T07:08:00;1.60;46.30
21807;DHT22;11065;50.786;7.840;2023-02-15T07:10:28;1.60;46.40
21807;DHT22;11065;50.786;7.840;2023-02-15T07:12:56;1.60;46.40
21807;DHT22;11065;50.786;7.840;2023-02-15T07:15:23;1.60;46.40
21807;DHT22;11065;50.786;7.840;2023-02-15T07:17:51;1.60;46.50
21807;DHT22;11065;50.786;7.840;2023-02-15T07:20:21;1.70;46.50
21807;DHT22;11065;50.786;7.840;2023-02-15T07:22:50;1.70;46.50
21807;DHT22;11065;50.786;7.840;2023-02-15T07:25:20;1.70;46.50
21807;DHT22;11065;50.786;7.840;2023-02-15T07:27:48;1.70;46.50
21807;DHT22;11065;50.786;7.840;2023-02-15T07:30:16;1.70;46.40
21807;DHT22;11065;50.786;7.840;2023-02-15T07:32:45;1.70;46.50
21807;DHT22;11065;50.786;7.840;2023-02-15T07:35:31;1.80;46.50
21807;DHT22;11065;50.786;7.840;2023-02-15T07:37:59;1.80;46.50
21807;DHT22;11065;50.786;7.840;2023-02-15T07:40:29;1.80;46.50
21807;DHT22;11065;50.786;7.840;2023-02-15T07:42:58;1.80;46.50
21807;DHT22;11065;50.786;7.840;2023-02-15T07:45:26;1.80;46.50
21807;DHT22;11065;50.786;7.840;2023-02-15T07:47:54;1.80;46.60
21807;DHT22;11065;50.786;7.840;2023-02-15T07:50:22;1.90;46.70
21807;DHT22;11065;50.786;7.840;2023-02-15T07:52:50;1.90;46.70
21807;DHT22;11065;50.786;7.840;2023-02-15T07:55:18;1.90;46.70
21807;DHT22;11065;50.786;7.840;2023-02-15T07:57:49;1.90;46.70
21807;DHT22;11065;50.786;7.840;2023-02-15T08:00:19;2.00;46.80
21807;DHT22;11065;50.786;7.840;2023-02-15T08:02:51;2.00;46.80
21807;DHT22;11065;50.786;7.840;2023-02-15T08:05:40;2.00;47.20
21807;DHT22;11065;50.786;7.840;2023-02-15T08:08:09;2.00;46.80
21807;DHT22;11065;50.786;7.840;2023-02-15T08:11:00;2.00;46.80
21807;DHT22;11065;50.786;7.840;2023-02-15T08:13:49;2.10;46.90
21807;DHT22;11065;50.786;7.840;2023-02-15T08:16:24;2.10;46.90
21807;DHT22;11065;50.786;7.840;2023-02-15T08:18:54;2.10;46.90
21807;DHT22;11065;50.786;7.840;2023-02-15T08:21:22;2.20;47.10
21807;DHT22;11065;50.786;7.840;2023-02-15T08:23:51;2.20;47.00
21807;DHT22;11065;50.786;7.840;2023-02-15T08:26:19;2.30;47.10
21807;DHT22;11065;50.786;7.840;2023-02-15T08:28:48;2.30;47.10
21807;DHT22;11065;50.786;7.840;2023-02-15T08:31:17;2.40;47.20
21807;DHT22;11065;50.786;7.840;2023-02-15T08:33:47;2.40;47.20
21807;DHT22;11065;50.786;7.840;2023-02-15T08:36:17;2.50;47.30
21807;DHT22;11065;50.786;7.840;2023-02-15T08:38:46;2.50;47.30
21807;DHT22;11065;50.786;7.840;2023-02-15T08:41:16;2.60;47.50
21807;DHT22;11065;50.786;7.840;2023-02-15T08:43:51;2.60;47.70
21807;DHT22;11065;50.786;7.840;2023-02-15T08:46:21;2.60;47.70
21807;DHT22;11065;50.786;7.840;2023-02-15T08:48:49;2.60;47.90
21807;DHT22;11065;50.786;7.840;2023-02-15T08:51:20;2.70;48.00
21807;DHT22;11065;50.786;7.840;2023-02-15T08:53:50;2.70;48.10
21807;DHT22;11065;50.786;7.840;2023-02-15T08:56:21;2.70;48.20
21807;DHT22;11065;50.786;7.840;2023-02-15T08:58:52;2.80;48.10
21807;DHT22;11065;50.786;7.840;2023-02-15T09:01:21;2.80;48.10
21807;DHT22;11065;50.786;7.840;2023-02-15T09:03:51;2.90;48.20
21807;DHT22;11065;50.786;7.840;2023-02-15T09:06:21;2.90;48.50
21807;DHT22;11065;50.786;7.840;2023-02-15T09:08:49;3.00;48.90
21807;DHT22;11065;50.786;7.840;2023-02-15T09:11:19;3.10;49.00
21807;DHT22;11065;50.786;7.840;2023-02-15T09:13:53;3.20;49.00
21807;DHT22;11065;50.786;7.840;2023-02-15T09:16:23;3.30;49.20
21807;DHT22;11065;50.786;7.840;2023-02-15T09:18:52;3.60;50.20
21807;DHT22;11065;50.786;7.840;2023-02-15T09:21:22;4.20;51.10
21807;DHT22;11065;50.786;7.840;2023-02-15T09:23:55;5.10;52.30
21807;DHT22;11065;50.786;7.840;2023-02-15T09:26:25;6.30;53.20
21807;DHT22;11065;50.786;7.840;2023-02-15T09:28:56;7.50;53.70
21807;DHT22;11065;50.786;7.840;2023-02-15T09:31:26;9.00;54.00
21807;DHT22;11065;50.786;7.840;2023-02-15T09:33:55;10.40;53.40
21807;DHT22;11065;50.786;7.840;2023-02-15T09:36:25;11.80;52.60
21807;DHT22;11065;50.786;7.840;2023-02-15T09:38:56;13.10;51.60
21807;DHT22;11065;50.786;7.840;2023-02-15T09:41:56;14.40;49.90
21807;DHT22;11065;50.786;7.840;2023-02-15T09:44:42;15.70;47.60
21807;DHT22;11065;50.786;7.840;2023-02-15T09:47:36;16.90;47.20
21807;DHT22;11065;50.786;7.840;2023-02-15T09:50:15;18.00;45.10
21807;DHT22;11065;50.786;7.840;2023-02-15T09:52:57;18.90;44.70
21807;DHT22;11065;50.786;7.840;2023-02-15T09:55:45;19.70;42.50
21807;DHT22;11065;50.786;7.840;2023-02-15T09:58:22;20.50;39.70
21807;DHT22;11065;50.786;7.840;2023-02-15T10:00:59;20.90;39.60
21807;DHT22;11065;50.786;7.840;2023-02-15T10:03:43;21.30;38.50
21807;DHT22;11065;50.786;7.840;2023-02-15T10:06:27;21.80;38.30
21807;DHT22;11065;50.786;7.840;2023-02-15T10:09:03;22.20;37.80
21807;DHT22;11065;50.786;7.840;2023-02-15T10:11:47;22.60;37.50
21807;DHT22;11065;50.786;7.840;2023-02-15T10:14:36;22.90;36.00
21807;DHT22;11065;50.786;7.840;2023-02-15T10:17:17;23.20;35.70
21807;DHT22;11065;50.786;7.840;2023-02-15T10:19:55;23.50;35.30
21807;DHT22;11065;50.786;7.840;2023-02-15T10:22:31;23.80;35.00
21807;DHT22;11065;50.786;7.840;2023-02-15T10:25:13;24.00;34.80
21807;DHT22;11065;50.786;7.840;2023-02-15T10:27:49;24.20;34.40
21807;DHT22;11065;50.786;7.840;2023-02-15T10:30:23;24.60;35.80
21807;DHT22;11065;50.786;7.840;2023-02-15T10:33:00;24.80;34.50
21807;DHT22;11065;50.786;7.840;2023-02-15T10:35:36;25.10;34.20
21807;DHT22;11065;50.786;7.840;2023-02-15T10:38:20;25.40;33.20
21807;DHT22;11065;50.786;7.840;2023-02-15T10:41:06;25.60;32.90
21807;DHT22;11065;50.786;7.840;2023-02-15T10:43:45;25.80;32.30
21807;DHT22;11065;50.786;7.840;2023-02-15T10:46:24;26.00;33.50
21807;DHT22;11065;50.786;7.840;2023-02-15T10:49:14;26.20;33.10
21807;DHT22;11065;50.786;7.840;2023-02-15T10:51:55;26.50;32.80
21807;DHT22;11065;50.786;7.840;2023-02-15T10:54:34;26.80;33.10
21807;DHT22;11065;50.786;7.840;2023-02-15T10:57:12;27.10;32.90
21807;DHT22;11065;50.786;7.840;2023-02-15T11:00:00;27.40;32.50
21807;DHT22;11065;50.786;7.840;2023-02-15T11:02:40;27.70;31.50
21807;DHT22;11065;50.786;7.840;2023-02-15T11:05:24;27.90;31.80
21807;DHT22;11065;50.786;7.840;2023-02-15T11:07:57;28.20;31.40
21807;DHT22;11065;50.786;7.840;2023-02-15T11:10:30;28.30;31.80
21807;DHT22;11065;50.786;7.840;2023-02-15T11:13:04;28.50;31.50
21807;DHT22;11065;50.786;7.840;2023-02-15T11:15:35;28.70;31.20
21807;DHT22;11065;50.786;7.840;2023-02-15T11:18:11;28.80;31.10
21807;DHT22;11065;50.786;7.840;2023-02-15T11:20:46;28.90;30.40
21807;DHT22;11065;50.786;7.840;2023-02-15T11:23:18;29.00;30.20
21807;DHT22;11065;50.786;7.840;2023-02-15T11:25:54;29.10;30.50
21807;DHT22;11065;50.786;7.840;2023-02-15T11:28:25;29.20;30.00
21807;DHT22;11065;50.786;7.840;2023-02-15T11:30:56;29.30;30.10
21807;DHT22;11065;50.786;7.840;2023-02-15T11:33:29;29.30;30.00
21807;DHT22;11065;50.786;7.840;2023-02-15T11:36:03;29.40;29.90
21807;DHT22;11065;50.786;7.840;2023-02-15T11:38:33;29.50;29.80
21807;DHT22;11065;50.786;7.840;2023-02-15T11:41:05;29.60;29.50
21807;DHT22;11065;50.786;7.840;2023-02-15T11:43:39;29.60;28.80
21807;DHT22;11065;50.786;7.840;2023-02-15T11:46:11;29.60;28.40
21807;DHT22;11065;50.786;7.840;2023-02-15T11:48:40;29.40;28.50
21807;DHT22;11065;50.786;7.840;2023-02-15T11:51:14;29.30;28.60
21807;DHT22;11065;50.786;7.840;2023-02-15T11:53:43;29.20;27.90
21807;DHT22;11065;50.786;7.840;2023-02-15T11:56:14;29.00;28.00
21807;DHT22;11065;50.786;7.840;2023-02-15T11:58:47;28.90;28.20
21807;DHT22;11065;50.786;7.840;2023-02-15T12:01:20;28.80;28.40
21807;DHT22;11065;50.786;7.840;2023-02-15T12:03:51;28.70;28.10
21807;DHT22;11065;50.786;7.840;2023-02-15T12:06:24;28.60;28.10
21807;DHT22;11065;50.786;7.840;2023-02-15T12:08:59;28.60;27.70
21807;DHT22;11065;50.786;7.840;2023-02-15T12:11:33;28.50;27.90
21807;DHT22;11065;50.786;7.840;2023-02-15T12:14:03;28.30;27.70
21807;DHT22;11065;50.786;7.840;2023-02-15T12:16:40;28.20;27.80
21807;DHT22;11065;50.786;7.840;2023-02-15T12:19:21;28.10;27.50
21807;DHT22;11065;50.786;7.840;2023-02-15T12:21:53;27.90;27.40
21807;DHT22;11065;50.786;7.840;2023-02-15T12:24:24;27.80;27.70
21807;DHT22;11065;50.786;7.840;2023-02-15T12:26:58;27.70;27.70
21807;DHT22;11065;50.786;7.840;2023-02-15T12:29:29;27.70;27.70
21807;DHT22;11065;50.786;7.840;2023-02-15T12:31:59;27.70;27.90
21807;DHT22;11065;50.786;7.840;2023-02-15T12:34:30;27.60;27.80
21807;DHT22;11065;50.786;7.840;2023-02-15T12:37:09;27.60;27.90
21807;DHT22;11065;50.786;7.840;2023-02-15T12:39:37;27.70;27.60
21807;DHT22;11065;50.786;7.840;2023-02-15T12:42:17;27.60;27.30
21807;DHT22;11065;50.786;7.840;2023-02-15T12:44:58;27.60;27.30
21807;DHT22;11065;50.786;7.840;2023-02-15T12:47:27;27.50;27.40
21807;DHT22;11065;50.786;7.840;2023-02-15T12:50:13;27.40;27.20
21807;DHT22;11065;50.786;7.840;2023-02-15T12:52:50;27.30;26.90
21807;DHT22;11065;50.786;7.840;2023-02-15T12:55:21;27.20;27.30
21807;DHT22;11065;50.786;7.840;2023-02-15T12:58:05;27.10;27.50
21807;DHT22;11065;50.786;7.840;2023-02-15T13:00:33;27.10;27.40
21807;DHT22;11065;50.786;7.840;2023-02-15T13:03:02;27.20;27.80
21807;DHT22;11065;50.786;7.840;2023-02-15T13:05:33;27.30;27.80
21807;DHT22;11065;50.786;7.840;2023-02-15T13:08:09;27.40;27.50
21807;DHT22;11065;50.786;7.840;2023-02-15T13:10:41;27.50;27.20
21807;DHT22;11065;50.786;7.840;2023-02-15T13:13:14;27.50;27.20
21807;DHT22;11065;50.786;7.840;2023-02-15T13:15:46;27.60;27.30
21807;DHT22;11065;50.786;7.840;2023-02-15T13:18:29;27.60;26.80
21807;DHT22;11065;50.786;7.840;2023-02-15T13:21:05;27.60;27.00
21807;DHT22;11065;50.786;7.840;2023-02-15T13:23:35;27.60;26.80
21807;DHT22;11065;50.786;7.840;2023-02-15T13:26:10;27.60;26.80
21807;DHT22;11065;50.786;7.840;2023-02-15T13:28:42;27.60;26.70
21807;DHT22;11065;50.786;7.840;2023-02-15T13:31:14;27.60;26.80
21807;DHT22;11065;50.786;7.840;2023-02-15T13:33:45;27.60;26.80
21807;DHT22;11065;50.786;7.840;2023-02-15T13:36:21;27.70;26.80
21807;DHT22;11065;50.786;7.840;2023-02-15T13:39:01;27.50;26.50
21807;DHT22;11065;50.786;7.840;2023-02-15T13:41:34;27.50;26.40
21807;DHT22;11065;50.786;7.840;2023-02-15T13:44:12;27.40;26.40
21807;DHT22;11065;50.786;7.840;2023-02-15T13:46:54;27.30;26.20
21807;DHT22;11065;50.786;7.840;2023-02-15T13:49:37;27.10;26.00
21807;DHT22;11065;50.786;7.840;2023-02-15T13:52:17;27.00;26.10
21807;DHT22;11065;50.786;7.840;2023-02-15T13:54:57;26.80;25.80
21807;DHT22;11065;50.786;7.840;2023-02-15T13:57:49;26.70;25.90
21807;DHT22;11065;50.786;7.840;2023-02-15T14:00:25;26.50;25.80
21807;DHT22;11065;50.786;7.840;2023-02-15T14:03:12;26.30;26.30
21807;DHT22;11065;50.786;7.840;2023-02-15T14:05:56;26.20;26.10
21807;DHT22;11065;50.786;7.840;2023-02-15T14:08:39;26.10;26.30
21807;DHT22;11065;50.786;7.840;2023-02-15T14:11:15;26.00;26.30
21807;DHT22;11065;50.786;7.840;2023-02-15T14:14:03;25.90;26.40
21807;DHT22;11065;50.786;7.840;2023-02-15T14:16:41;25.90;26.30
21807;DHT22;11065;50.786;7.840;2023-02-15T14:19:36;25.90;26.50
21807;DHT22;11065;50.786;7.840;2023-02-15T14:22:11;25.80;26.50
21807;DHT22;11065;50.786;7.840;2023-02-15T14:24:44;25.80;26.40
21807;DHT22;11065;50.786;7.840;2023-02-15T14:27:23;25.80;26.40
21807;DHT22;11065;50.786;7.840;2023-02-15T14:29:56;25.70;26.30
21807;DHT22;11065;50.786;7.840;2023-02-15T14:32:29;25.70;26.40
21807;DHT22;11065;50.786;7.840;2023-02-15T14:35:00;25.60;26.30
21807;DHT22;11065;50.786;7.840;2023-02-15T14:37:39;25.50;26.40
21807;DHT22;11065;50.786;7.840;2023-02-15T14:40:17;25.40;26.30
21807;DHT22;11065;50.786;7.840;2023-02-15T14:43:09;25.30;26.40
21807;DHT22;11065;50.786;7.840;2023-02-15T14:45:48;25.20;26.40
21807;DHT22;11065;50.786;7.840;2023-02-15T14:48:21;25.10;26.30
21807;DHT22;11065;50.786;7.840;2023-02-15T14:50:52;25.00;26.30
21807;DHT22;11065;50.786;7.840;2023-02-15T14:53:47;24.80;26.30
21807;DHT22;11065;50.786;7.840;2023-02-15T14:56:24;24.70;26.40
21807;DHT22;11065;50.786;7.840;2023-02-15T14:59:13;24.50;26.30
21807;DHT22;11065;50.786;7.840;2023-02-15T15:01:52;24.30;26.40
21807;DHT22;11065;50.786;7.840;2023-02-15T15:04:27;24.10;26.50
21807;DHT22;11065;50.786;7.840;2023-02-15T15:07:03;24.00;26.60
21807;DHT22;11065;50.786;7.840;2023-02-15T15:09:37;23.90;26.60
21807;DHT22;11065;50.786;7.840;2023-02-15T15:12:36;23.60;26.60
21807;DHT22;11065;50.786;7.840;2023-02-15T15:15:07;23.40;26.60
21807;DHT22;11065;50.786;7.840;2023-02-15T15:17:54;23.10;26.50
21807;DHT22;11065;50.786;7.840;2023-02-15T15:20:50;22.70;26.60
21807;DHT22;11065;50.786;7.840;2023-02-15T15:23:40;22.30;26.70
21807;DHT22;11065;50.786;7.840;2023-02-15T15:26:32;21.90;27.00
21807;DHT22;11065;50.786;7.840;2023-02-15T15:29:05;21.60;27.10
21807;DHT22;11065;50.786;7.840;2023-02-15T15:31:46;21.40;27.20
21807;DHT22;11065;50.786;7.840;2023-02-15T15:34:41;21.10;27.50
21807;DHT22;11065;50.786;7.840;2023-02-15T15:43:40;20.10;27.90
21807;DHT22;11065;50.786;7.840;2023-02-15T15:46:39;19.70;28.00
21807;DHT22;11065;50.786;7.840;2023-02-15T15:49:15;19.40;28.20
21807;DHT22;11065;50.786;7.840;2023-02-15T15:51:44;19.10;28.20
21807;DHT22;11065;50.786;7.840;2023-02-15T15:54:16;18.80;28.20
21807;DHT22;11065;50.786;7.840;2023-02-15T15:56:48;18.60;28.50
21807;DHT22;11065;50.786;7.840;2023-02-15T15:59:20;18.30;28.60
21807;DHT22;11065;50.786;7.840;2023-02-15T16:01:49;18.10;28.70
21807;DHT22;11065;50.786;7.840;2023-02-15T16:04:26;17.80;28.70
21807;DHT22;11065;50.786;7.840;2023-02-15T16:06:56;17.60;29.00
21807;DHT22;11065;50.786;7.840;2023-02-15T16:09:26;17.40;29.00
21807;DHT22;11065;50.786;7.840;2023-02-15T16:11:56;17.10;29.20
21807;DHT22;11065;50.786;7.840;2023-02-15T16:14:30;16.90;29.30
21807;DHT22;11065;50.786;7.840;2023-02-15T16:17:00;16.70;29.50
21807;DHT22;11065;50.786;7.840;2023-02-15T16:19:38;16.50;29.60
21807;DHT22;11065;50.786;7.840;2023-02-15T16:22:11;16.30;30.00
21807;DHT22;11065;50.786;7.840;2023-02-15T16:24:58;16.10;30.00
21807;DHT22;11065;50.786;7.840;2023-02-15T16:27:34;15.90;30.30
21807;DHT22;11065;50.786;7.840;2023-02-15T16:30:25;15.70;30.10
21807;DHT22;11065;50.786;7.840;2023-02-15T16:33:04;15.50;30.60